createdAt,value
2022-10-16T00:01:18.117Z,100435.94
2022-10-16T00:03:46.533Z,100424.44
2022-10-16T00:06:14.995Z,100421.53
2022-10-16T00:08:44.295Z,100424.00
2022-10-16T00:11:13.819Z,100415.09
2022-10-16T00:13:42.898Z,100411.78
2022-10-16T00:16:12.108Z,100398.38
2022-10-16T00:18:39.979Z,100404.56
2022-10-16T00:21:08.901Z,100412.00
2022-10-16T00:23:36.687Z,100412.22
2022-10-16T00:26:07.681Z,100414.06
2022-10-16T00:28:35.702Z,100424.00
2022-10-16T00:31:05.624Z,100425.78
2022-10-16T00:33:33.143Z,100423.22
2022-10-16T00:36:00.806Z,100415.16
2022-10-16T00:38:28.407Z,100411.03
2022-10-16T00:40:56.004Z,100419.09
2022-10-16T00:43:39.936Z,100424.44
2022-10-16T00:46:14.425Z,100416.56
2022-10-16T00:48:42.183Z,100406.88
2022-10-16T00:51:09.904Z,100405.22
2022-10-16T00:53:37.614Z,100403.97
2022-10-16T00:56:05.387Z,100411.41
2022-10-16T00:58:32.900Z,100414.94
2022-10-16T01:01:01.895Z,100393.81
2022-10-16T01:03:31.732Z,100408.97
2022-10-16T01:06:11.234Z,100425.47
2022-10-16T01:08:47.317Z,100432.47
2022-10-16T01:11:20.590Z,100445.22
2022-10-16T01:13:53.371Z,100449.75
2022-10-16T01:16:29.567Z,100453.41
2022-10-16T01:19:00.337Z,100454.69
2022-10-16T01:21:30.259Z,100460.38
2022-10-16T01:24:05.154Z,100459.47
2022-10-16T01:26:39.535Z,100454.47
2022-10-16T01:29:11.505Z,100448.59
2022-10-16T01:31:41.979Z,100432.31
2022-10-16T01:34:14.130Z,100433.94
2022-10-16T01:36:44.385Z,100431.94
2022-10-16T01:39:12.963Z,100444.34
2022-10-16T01:41:44.638Z,100430.91
2022-10-16T01:44:17.011Z,100430.69
2022-10-16T01:46:45.729Z,100438.00
2022-10-16T01:49:14.320Z,100437.22
2022-10-16T01:51:42.649Z,100451.91
2022-10-16T01:54:10.530Z,100458.91
2022-10-16T01:56:39.004Z,100456.00
2022-10-16T01:59:08.812Z,100464.63
2022-10-16T02:01:39.135Z,100455.75
2022-10-16T02:04:11.427Z,100453.72
2022-10-16T02:06:38.907Z,100457.44
2022-10-16T02:09:06.448Z,100453.53
2022-10-16T02:11:33.951Z,100456.34
2022-10-16T02:14:05.434Z,100460.22
2022-10-16T02:16:38.781Z,100459.88
2022-10-16T02:19:07.357Z,100475.34
2022-10-16T02:21:41.734Z,100473.50
2022-10-16T02:24:16.128Z,100471.88
2022-10-16T02:26:47.991Z,100462.00
2022-10-16T02:29:19.791Z,100471.03
2022-10-16T02:31:52.595Z,100465.22
2022-10-16T02:34:20.408Z,100474.78
2022-10-16T02:36:48.943Z,100475.59
2022-10-16T02:39:17.279Z,100469.75
2022-10-16T02:41:44.863Z,100476.81
2022-10-16T02:44:12.332Z,100472.09
2022-10-16T02:46:39.789Z,100466.75
2022-10-16T02:49:08.606Z,100468.22
2022-10-16T02:51:36.057Z,100474.00
2022-10-16T02:54:03.714Z,100476.84
2022-10-16T02:56:31.895Z,100474.38
2022-10-16T02:58:59.376Z,100476.03
2022-10-16T03:01:27.008Z,100483.03
2022-10-16T03:03:54.544Z,100492.13
2022-10-16T03:06:23.408Z,100482.59
2022-10-16T03:08:50.891Z,100474.38
2022-10-16T03:11:18.369Z,100479.75
2022-10-16T03:13:45.873Z,100484.75
2022-10-16T03:16:13.380Z,100491.13
2022-10-16T03:18:40.853Z,100484.75
2022-10-16T03:21:08.504Z,100486.25
2022-10-16T03:23:37.331Z,100493.44
2022-10-16T03:26:04.844Z,100482.28
2022-10-16T03:28:32.347Z,100500.03
2022-10-16T03:30:59.829Z,100501.31
2022-10-16T03:33:27.291Z,100508.25
2022-10-16T03:35:55.521Z,100501.59
2022-10-16T03:38:23.580Z,100496.47
2022-10-16T03:40:52.376Z,100502.47
2022-10-16T03:43:19.869Z,100508.06
2022-10-16T03:45:47.356Z,100508.50
2022-10-16T03:48:14.822Z,100507.19
2022-10-16T03:50:42.285Z,100510.72
2022-10-16T03:53:09.765Z,100511.16
2022-10-16T03:55:37.806Z,100502.22
2022-10-16T03:58:06.602Z,100497.28
2022-10-16T04:00:34.073Z,100505.38
2022-10-16T04:03:01.537Z,100501.88
2022-10-16T04:05:29.012Z,100500.19
2022-10-16T04:07:56.833Z,100492.72
2022-10-16T04:10:24.279Z,100492.56
2022-10-16T04:12:51.743Z,100507.44
2022-10-16T04:15:20.545Z,100522.34
2022-10-16T04:17:48.009Z,100528.75
2022-10-16T04:20:15.765Z,100515.94
2022-10-16T04:22:43.261Z,100519.84
2022-10-16T04:25:12.120Z,100521.66
2022-10-16T04:27:42.228Z,100523.50
2022-10-16T04:30:12.807Z,100518.34
2022-10-16T04:32:41.627Z,100520.84
2022-10-16T04:35:09.921Z,100519.41
2022-10-16T04:37:37.369Z,100524.78
2022-10-16T04:40:05.920Z,100523.91
2022-10-16T04:42:33.397Z,100516.28
2022-10-16T04:45:00.871Z,100533.84
2022-10-16T04:47:28.822Z,100531.59
2022-10-16T04:49:58.005Z,100529.31
2022-10-16T04:52:26.006Z,100529.28
2022-10-16T04:54:54.720Z,100520.19
2022-10-16T04:57:22.169Z,100525.34
2022-10-16T04:59:49.607Z,100524.78
2022-10-16T05:02:17.076Z,100535.94
2022-10-16T05:04:44.529Z,100542.94
2022-10-16T05:07:13.335Z,100541.88
2022-10-16T05:09:40.793Z,100532.63
2022-10-16T05:12:08.353Z,100535.53
2022-10-16T05:14:35.848Z,100539.44
2022-10-16T05:17:03.388Z,100543.19
2022-10-16T05:19:30.866Z,100548.53
2022-10-16T05:21:58.374Z,100549.38
2022-10-16T05:24:27.254Z,100542.31
2022-10-16T05:26:54.736Z,100540.50
2022-10-16T05:29:22.375Z,100538.56
2022-10-16T05:31:52.486Z,100527.25
2022-10-16T05:34:19.973Z,100535.09
2022-10-16T05:36:48.246Z,100531.13
2022-10-16T05:39:16.002Z,100522.25
2022-10-16T05:41:45.057Z,100520.63
2022-10-16T05:44:13.076Z,100527.56
2022-10-16T05:46:40.517Z,100542.59
2022-10-16T05:49:07.960Z,100549.00
2022-10-16T05:51:35.473Z,100553.53
2022-10-16T05:54:02.935Z,100552.13
2022-10-16T05:56:30.405Z,100567.59
2022-10-16T05:58:59.209Z,100579.81
2022-10-16T06:01:26.809Z,100584.31
2022-10-16T06:03:54.920Z,100580.16
2022-10-16T06:06:24.996Z,100588.41
2022-10-16T06:08:52.459Z,100586.72
2022-10-16T06:11:21.537Z,100583.19
2022-10-16T06:13:51.312Z,100588.75
2022-10-16T06:16:20.323Z,100584.22
2022-10-16T06:18:48.124Z,100574.28
2022-10-16T06:21:18.209Z,100587.88
2022-10-16T06:26:20.842Z,100593.69
2022-10-16T06:28:48.860Z,100594.97
2022-10-16T06:31:17.060Z,100601.75
2022-10-16T06:33:46.655Z,100598.63
2022-10-16T06:36:16.332Z,100590.38
2022-10-16T06:38:44.321Z,100586.84
2022-10-16T06:41:13.704Z,100589.72
2022-10-16T06:43:41.392Z,100596.78
2022-10-16T06:46:11.625Z,100591.59
2022-10-16T06:48:39.357Z,100599.03
2022-10-16T06:51:10.727Z,100599.25
2022-10-16T06:53:54.569Z,100604.41
2022-10-16T06:56:28.544Z,100611.63
2022-10-16T06:58:56.189Z,100616.78
2022-10-16T07:01:25.276Z,100614.31
2022-10-16T07:03:53.478Z,100615.53
2022-10-16T07:06:24.139Z,100610.75
2022-10-16T07:08:51.791Z,100623.31
2022-10-16T07:11:21.004Z,100623.72
2022-10-16T07:13:52.853Z,100637.75
2022-10-16T07:16:24.055Z,100632.53
2022-10-16T07:18:55.209Z,100632.28
2022-10-16T07:21:26.485Z,100639.69
2022-10-16T07:23:54.652Z,100638.22
2022-10-16T07:26:22.179Z,100645.66
2022-10-16T07:28:49.729Z,100647.53
2022-10-16T07:31:18.914Z,100660.31
2022-10-16T07:33:48.722Z,100665.69
2022-10-16T07:36:16.762Z,100670.22
2022-10-16T07:38:45.990Z,100667.28
2022-10-16T07:41:15.081Z,100669.13
2022-10-16T07:43:47.898Z,100680.50
2022-10-16T07:46:16.277Z,100686.44
2022-10-16T07:48:46.587Z,100693.22
2022-10-16T07:51:15.109Z,100687.41
2022-10-16T07:53:42.585Z,100687.16
2022-10-16T07:56:12.472Z,100677.31
2022-10-16T07:58:40.082Z,100679.75
2022-10-16T08:01:09.369Z,100694.34
2022-10-16T08:03:37.052Z,100699.94
2022-10-16T08:06:05.435Z,100725.00
2022-10-16T08:08:33.091Z,100725.63
2022-10-16T08:11:00.818Z,100731.78
2022-10-16T08:13:29.607Z,100726.63
2022-10-16T08:15:57.144Z,100724.66
2022-10-16T08:18:24.600Z,100728.44
2022-10-16T08:20:57.321Z,100733.47
2022-10-16T08:23:26.678Z,100736.72
2022-10-16T08:25:54.618Z,100738.41
2022-10-16T08:28:22.399Z,100742.72
2022-10-16T08:30:51.225Z,100752.06
2022-10-16T08:33:18.702Z,100744.66
2022-10-16T08:35:53.362Z,100752.94
2022-10-16T08:38:20.892Z,100758.72
2022-10-16T08:40:51.302Z,100756.28
2022-10-16T08:43:33.890Z,100761.25
2022-10-16T08:46:24.460Z,100770.34
2022-10-16T08:48:53.632Z,100778.22
2022-10-16T08:51:24.402Z,100781.78
2022-10-16T08:53:55.045Z,100789.47
2022-10-16T08:56:23.077Z,100794.63
2022-10-16T08:58:55.079Z,100798.75
2022-10-16T09:01:34.979Z,100786.47
2022-10-16T09:04:26.945Z,100789.19
2022-10-16T09:06:57.598Z,100795.41
2022-10-16T09:09:40.570Z,100794.91
2022-10-16T09:12:14.301Z,100797.16
2022-10-16T09:14:49.459Z,100804.00
2022-10-16T09:17:29.222Z,100810.44
2022-10-16T09:20:00.665Z,100813.28
2022-10-16T09:22:30.297Z,100815.63
2022-10-16T09:25:01.669Z,100831.56
2022-10-16T09:27:29.368Z,100833.25
2022-10-16T09:29:59.656Z,100843.13
2022-10-16T09:32:30.215Z,100842.56
2022-10-16T09:34:58.364Z,100842.72
2022-10-16T09:37:26.896Z,100841.16
2022-10-16T09:39:55.929Z,100842.56
2022-10-16T09:42:25.816Z,100843.38
2022-10-16T09:44:54.503Z,100846.09
2022-10-16T09:47:25.224Z,100842.28
2022-10-16T09:49:56.209Z,100845.13
2022-10-16T09:52:24.265Z,100854.25
2022-10-16T09:54:53.311Z,100853.69
2022-10-16T09:57:21.555Z,100862.59
2022-10-16T09:59:50.869Z,100872.16
2022-10-16T10:02:19.695Z,100858.41
2022-10-16T10:04:51.258Z,100861.84
2022-10-16T10:07:27.362Z,100859.97
2022-10-16T10:09:55.752Z,100860.13
2022-10-16T10:12:26.879Z,100854.19
2022-10-16T10:14:56.273Z,100865.09
2022-10-16T10:17:25.485Z,100859.53
2022-10-16T10:19:55.908Z,100859.66
2022-10-16T10:22:33.509Z,100846.81
2022-10-16T10:25:17.161Z,100855.94
2022-10-16T10:28:10.504Z,100848.41
2022-10-16T10:30:44.670Z,100854.81
2022-10-16T10:33:21.484Z,100857.34
2022-10-16T10:35:58.611Z,100842.63
2022-10-16T10:38:33.603Z,100847.84
2022-10-16T10:41:18.480Z,100846.34
2022-10-16T10:43:55.764Z,100843.75
2022-10-16T10:46:30.792Z,100848.19
2022-10-16T10:49:22.534Z,100842.75
2022-10-16T10:51:59.164Z,100837.91
2022-10-16T10:54:32.498Z,100835.28
2022-10-16T10:57:02.285Z,100831.25
2022-10-16T10:59:36.603Z,100834.09
2022-10-16T11:02:09.233Z,100844.72
2022-10-16T11:05:00.480Z,100839.09
2022-10-16T11:07:30.173Z,100835.13
2022-10-16T11:10:01.431Z,100839.22
2022-10-16T11:12:32.475Z,100840.06
2022-10-16T11:15:05.289Z,100845.50
2022-10-16T11:17:36.811Z,100844.38
2022-10-16T11:20:07.805Z,100853.69
2022-10-16T11:22:36.665Z,100849.88
2022-10-16T11:25:13.986Z,100861.59
2022-10-16T11:27:44.109Z,100851.41
2022-10-16T11:30:17.789Z,100844.03
2022-10-16T11:32:53.641Z,100839.56
2022-10-16T11:35:24.476Z,100842.31
2022-10-16T11:37:53.917Z,100840.06
2022-10-16T11:40:27.819Z,100846.13
2022-10-16T11:43:00.043Z,100845.94
2022-10-16T11:45:33.064Z,100848.41
2022-10-16T11:48:04.598Z,100842.34
2022-10-16T11:50:36.933Z,100836.38
2022-10-16T11:53:10.699Z,100834.44
2022-10-16T11:55:44.723Z,100832.31
2022-10-16T11:58:21.681Z,100833.38
2022-10-16T12:00:55.895Z,100822.75
2022-10-16T12:03:26.321Z,100820.19
2022-10-16T12:06:00.806Z,100830.97
2022-10-16T12:08:28.714Z,100832.50
2022-10-16T12:11:08.949Z,100835.44
2022-10-16T12:13:38.183Z,100828.50
2022-10-16T12:16:19.512Z,100822.13
2022-10-16T12:18:48.176Z,100816.94
2022-10-16T12:21:16.999Z,100823.28
2022-10-16T12:23:50.050Z,100826.34
2022-10-16T12:26:27.362Z,100829.06
2022-10-16T12:28:55.462Z,100828.97
2022-10-16T12:31:24.267Z,100832.22
2022-10-16T12:33:59.804Z,100838.59
2022-10-16T12:36:32.247Z,100835.44
2022-10-16T12:39:00.088Z,100852.56
2022-10-16T12:41:31.126Z,100847.53
2022-10-16T12:43:59.181Z,100857.13
2022-10-16T12:46:38.593Z,100852.09
2022-10-16T12:49:26.563Z,100853.28
2022-10-16T12:51:54.073Z,100842.59
2022-10-16T12:54:30.648Z,100848.59
2022-10-16T12:57:10.810Z,100845.44
2022-10-16T12:59:44.386Z,100849.88
2022-10-16T13:02:56.206Z,100848.94
2022-10-16T13:08:24.623Z,100837.91
2022-10-16T13:11:01.469Z,100832.38
2022-10-16T13:13:41.529Z,100841.69
2022-10-16T13:16:19.386Z,100849.06
2022-10-16T13:18:55.023Z,100851.41
2022-10-16T13:21:33.187Z,100860.56
2022-10-16T13:24:04.916Z,100859.63
2022-10-16T13:26:41.213Z,100856.81
2022-10-16T13:29:10.133Z,100853.38
2022-10-16T13:31:40.208Z,100851.53
2022-10-16T13:34:08.568Z,100851.25
2022-10-16T13:36:37.974Z,100845.84
2022-10-16T13:39:14.417Z,100845.72
2022-10-16T13:41:42.285Z,100844.91
2022-10-16T13:44:16.550Z,100839.94
2022-10-16T13:46:44.309Z,100838.19
2022-10-16T13:49:16.811Z,100843.28
2022-10-16T13:51:56.285Z,100849.84
2022-10-16T13:54:24.192Z,100844.66
2022-10-16T13:57:03.211Z,100849.94
2022-10-16T13:59:39.780Z,100848.31
2022-10-16T14:02:17.034Z,100849.16
2022-10-16T14:04:44.769Z,100840.22
2022-10-16T14:07:20.503Z,100835.03
2022-10-16T14:09:50.898Z,100834.44
2022-10-16T14:12:18.603Z,100829.53
2022-10-16T14:14:49.516Z,100827.41
2022-10-16T14:17:17.354Z,100824.72
2022-10-16T14:19:50.446Z,100835.19
2022-10-16T14:22:33.022Z,100849.16
2022-10-16T14:25:01.046Z,100851.31
2022-10-16T14:27:32.991Z,100843.53
2022-10-16T14:30:16.262Z,100844.94
2022-10-16T14:32:44.696Z,100843.41
2022-10-16T14:35:25.319Z,100841.03
2022-10-16T14:37:54.120Z,100852.00
2022-10-16T14:40:23.140Z,100855.97
2022-10-16T14:42:50.915Z,100851.38
2022-10-16T14:45:23.087Z,100848.16
2022-10-16T14:47:52.966Z,100850.56
2022-10-16T14:50:20.729Z,100848.16
2022-10-16T14:52:48.291Z,100845.25
2022-10-16T14:55:16.031Z,100844.31
2022-10-16T14:57:45.202Z,100841.59
2022-10-16T15:00:18.585Z,100857.13
2022-10-16T15:02:48.412Z,100847.97
2022-10-16T15:05:18.864Z,100851.63
2022-10-16T15:07:47.387Z,100849.28
2022-10-16T15:10:15.367Z,100857.50
2022-10-16T15:12:43.186Z,100851.25
2022-10-16T15:15:38.467Z,100845.16
2022-10-16T15:18:07.491Z,100852.56
2022-10-16T15:20:37.676Z,100861.38
2022-10-16T15:23:08.007Z,100849.38
2022-10-16T15:25:40.644Z,100854.56
2022-10-16T15:28:08.836Z,100861.63
2022-10-16T15:30:36.796Z,100865.38
2022-10-16T15:33:05.352Z,100862.69
2022-10-16T15:35:34.261Z,100865.84
2022-10-16T15:38:01.931Z,100864.31
2022-10-16T15:40:29.774Z,100867.84
2022-10-16T15:42:57.306Z,100866.78
2022-10-16T15:45:25.009Z,100872.41
2022-10-16T15:47:52.620Z,100868.66
2022-10-16T15:50:20.194Z,100877.81
2022-10-16T15:52:49.283Z,100881.56
2022-10-16T15:55:17.011Z,100877.69
2022-10-16T15:57:44.725Z,100884.97
2022-10-16T16:00:14.319Z,100884.13
2022-10-16T16:02:41.924Z,100882.50
2022-10-16T16:05:10.685Z,100877.56
2022-10-16T16:07:39.556Z,100873.09
2022-10-16T16:10:10.389Z,100874.16
2022-10-16T16:12:38.043Z,100873.56
2022-10-16T16:15:06.772Z,100872.41
2022-10-16T16:17:34.645Z,100875.56
2022-10-16T16:20:02.194Z,100876.63
2022-10-16T16:22:30.389Z,100875.44
2022-10-16T16:24:58.205Z,100881.75
2022-10-16T16:27:27.343Z,100874.56
2022-10-16T16:29:56.133Z,100878.44
2022-10-16T16:32:23.837Z,100879.50
2022-10-16T16:34:51.365Z,100881.84
2022-10-16T16:37:19.057Z,100874.69
2022-10-16T16:39:46.543Z,100877.00
2022-10-16T16:42:13.987Z,100876.28
2022-10-16T16:44:42.805Z,100880.69
2022-10-16T16:47:11.779Z,100895.94
2022-10-16T16:49:39.277Z,100891.22
2022-10-16T16:52:06.715Z,100896.69
2022-10-16T16:57:06.629Z,100903.78
2022-10-16T16:59:34.516Z,100906.72
2022-10-16T17:02:04.028Z,100910.13
2022-10-16T17:04:31.510Z,100907.88
2022-10-16T17:06:59.026Z,100911.25
2022-10-16T17:09:26.545Z,100912.72
2022-10-16T17:11:53.992Z,100912.38
2022-10-16T17:14:21.624Z,100913.84
2022-10-16T17:16:49.805Z,100917.00
2022-10-16T17:19:20.187Z,100920.97
2022-10-16T17:21:50.364Z,100916.47
2022-10-16T17:24:19.588Z,100908.84
2022-10-16T17:26:48.975Z,100916.56
2022-10-16T17:29:18.008Z,100920.50
2022-10-16T17:31:45.965Z,100920.16
2022-10-16T17:34:14.082Z,100921.41
2022-10-16T17:36:46.738Z,100928.06
2022-10-16T17:39:18.045Z,100926.88
2022-10-16T17:41:46.589Z,100940.19
2022-10-16T17:44:19.849Z,100933.59
2022-10-16T17:46:48.679Z,100929.31
2022-10-16T17:49:16.555Z,100937.22
2022-10-16T17:51:45.766Z,100937.94
2022-10-16T17:54:14.504Z,100936.94
2022-10-16T17:56:42.645Z,100942.59
2022-10-16T17:59:11.655Z,100947.00
2022-10-16T18:01:41.629Z,100955.09
2022-10-16T18:04:12.373Z,100951.22
2022-10-16T18:06:41.534Z,100957.53
2022-10-16T18:09:12.366Z,100954.88
2022-10-16T18:11:39.948Z,100953.66
2022-10-16T18:14:07.623Z,100964.25
2022-10-16T18:16:36.456Z,100965.28
2022-10-16T18:19:04.021Z,100967.63
2022-10-16T18:21:32.435Z,100972.59
2022-10-16T18:24:01.361Z,100967.03
2022-10-16T18:26:30.679Z,100970.78
2022-10-16T18:28:59.112Z,100966.66
2022-10-16T18:31:27.284Z,100964.19
2022-10-16T18:33:55.765Z,100966.06
2022-10-16T18:36:25.675Z,100969.59
2022-10-16T18:38:53.375Z,100973.72
2022-10-16T18:41:21.058Z,100973.56
2022-10-16T18:43:50.279Z,100974.97
2022-10-16T18:46:19.380Z,100978.31
2022-10-16T18:48:48.008Z,100972.56
2022-10-16T18:51:18.221Z,100973.38
2022-10-16T18:53:47.160Z,100972.50
2022-10-16T18:56:15.976Z,100975.88
2022-10-16T18:58:44.658Z,100974.47
2022-10-16T19:01:16.520Z,100972.41
2022-10-16T19:03:45.750Z,100980.06
2022-10-16T19:06:15.369Z,100989.19
2022-10-16T19:08:44.845Z,100986.50
2022-10-16T19:11:14.945Z,100976.75
2022-10-16T19:13:42.738Z,100980.72
2022-10-16T19:16:20.221Z,100978.44
2022-10-16T19:18:48.899Z,100977.22
2022-10-16T19:21:17.172Z,100980.53
2022-10-16T19:23:45.000Z,100980.72
2022-10-16T19:26:14.688Z,100974.53
2022-10-16T19:28:43.388Z,100979.69
2022-10-16T19:31:14.406Z,100976.19
2022-10-16T19:33:42.516Z,100981.97
2022-10-16T19:36:10.935Z,100975.78
2022-10-16T19:38:38.830Z,100985.50
2022-10-16T19:41:10.946Z,100977.22
2022-10-16T19:43:40.542Z,100991.25
2022-10-16T19:46:10.198Z,100990.59
2022-10-16T19:48:40.029Z,100994.09
2022-10-16T19:51:08.850Z,100998.66
2022-10-16T19:53:36.513Z,101006.09
2022-10-16T19:56:13.337Z,101001.53
2022-10-16T19:58:40.935Z,101000.72
2022-10-16T20:01:08.532Z,101013.88
2022-10-16T20:03:36.529Z,101017.16
2022-10-16T20:06:06.955Z,101021.72
2022-10-16T20:08:35.426Z,101026.69
2022-10-16T20:11:04.295Z,101017.56
2022-10-16T20:13:32.074Z,101017.41
2022-10-16T20:15:59.840Z,101021.31
2022-10-16T20:18:27.495Z,101020.91
2022-10-16T20:20:55.105Z,101022.91
2022-10-16T20:23:24.759Z,101023.16
2022-10-16T20:25:52.823Z,101019.44
2022-10-16T20:28:21.914Z,101020.50
2022-10-16T20:30:50.909Z,101012.03
2022-10-16T20:33:18.852Z,101028.09
2022-10-16T20:35:48.378Z,101025.97
2022-10-16T20:38:17.685Z,101032.75
2022-10-16T20:40:48.747Z,101031.13
2022-10-16T20:43:18.024Z,101036.91
2022-10-16T20:45:46.103Z,101031.63
2022-10-16T20:48:15.832Z,101040.66
2022-10-16T20:50:43.547Z,101046.81
2022-10-16T20:53:11.089Z,101042.63
2022-10-16T20:55:39.041Z,101041.66
2022-10-16T20:58:07.986Z,101051.94
2022-10-16T21:00:35.583Z,101047.34
2022-10-16T21:03:03.196Z,101045.94
2022-10-16T21:05:31.557Z,101046.34
2022-10-16T21:07:59.413Z,101053.75
2022-10-16T21:10:27.197Z,101046.63
2022-10-16T21:12:55.417Z,101049.25
2022-10-16T21:15:24.389Z,101042.59
2022-10-16T21:17:53.121Z,101041.19
2022-10-16T21:20:21.261Z,101039.34
2022-10-16T21:22:48.898Z,101043.41
2022-10-16T21:25:16.537Z,101041.06
2022-10-16T21:27:44.281Z,101039.28
2022-10-16T21:30:12.230Z,101042.38
2022-10-16T21:32:41.173Z,101041.63
2022-10-16T21:35:09.549Z,101046.13
2022-10-16T21:37:37.137Z,101037.44
2022-10-16T21:40:05.368Z,101052.94
2022-10-16T21:42:33.003Z,101051.56
2022-10-16T21:45:00.557Z,101054.38
2022-10-16T21:47:28.239Z,101050.44
2022-10-16T21:49:57.149Z,101051.75
2022-10-16T21:52:24.965Z,101049.78
2022-10-16T21:54:52.772Z,101047.81
2022-10-16T21:57:20.384Z,101051.75
2022-10-16T21:59:48.019Z,101042.41
2022-10-16T22:02:15.548Z,101053.09
2022-10-16T22:04:43.141Z,101059.88
2022-10-16T22:07:12.064Z,101050.75
2022-10-16T22:09:39.577Z,101054.59
2022-10-16T22:12:07.143Z,101062.75
2022-10-16T22:14:34.675Z,101055.31
2022-10-16T22:17:02.762Z,101047.44
2022-10-16T22:19:30.368Z,101051.66
2022-10-16T22:22:00.329Z,101045.06
2022-10-16T22:24:29.173Z,101043.78
2022-10-16T22:26:56.766Z,101057.25
2022-10-16T22:29:24.282Z,101054.50
2022-10-16T22:31:53.047Z,101054.31
2022-10-16T22:34:20.984Z,101051.84
2022-10-16T22:36:49.626Z,101055.56
2022-10-16T22:39:18.150Z,101067.03
2022-10-16T22:41:46.977Z,101063.81
2022-10-16T22:44:14.733Z,101066.09
2022-10-16T22:46:42.258Z,101065.97
2022-10-16T22:49:09.822Z,101062.56
2022-10-16T22:51:37.348Z,101076.44
2022-10-16T22:54:05.094Z,101085.28
2022-10-16T22:56:32.544Z,101099.31
2022-10-16T22:59:01.383Z,101088.41
2022-10-16T23:01:32.088Z,101091.84
2022-10-16T23:04:01.227Z,101100.06
2022-10-16T23:06:29.025Z,101098.09
2022-10-16T23:08:58.322Z,101095.22
2022-10-16T23:11:26.624Z,101096.91
2022-10-16T23:13:54.437Z,101097.09
2022-10-16T23:16:24.402Z,101097.19
2022-10-16T23:18:52.200Z,101096.81
2022-10-16T23:21:21.692Z,101095.22
2022-10-16T23:23:49.734Z,101091.09
2022-10-16T23:26:18.961Z,101092.22
2022-10-16T23:28:46.784Z,101103.69
2022-10-16T23:31:15.721Z,101109.78
2022-10-16T23:33:45.220Z,101113.09
2022-10-16T23:36:15.107Z,101118.63
2022-10-16T23:38:43.223Z,101111.38
2022-10-16T23:41:10.949Z,101124.19
2022-10-16T23:43:38.648Z,101122.06
2022-10-16T23:46:07.044Z,101125.38
2022-10-16T23:48:34.574Z,101127.22
2022-10-16T23:51:03.407Z,101120.84
2022-10-16T23:53:31.029Z,101121.13
2022-10-16T23:55:58.476Z,101126.28
2022-10-16T23:58:26.117Z,101123.72
